sensor_id;sensor_type;location;lat;lon;timestamp;temperature;humidity
58993;DHT22;44782;0.000;0.000;2023-11-22T00:00:28;17.30;64.60
58993;DHT22;44782;0.000;0.000;2023-11-22T00:02:43;17.30;64.60
58993;DHT22;44782;0.000;0.000;2023-11-22T00:04:59;17.30;64.60
58993;DHT22;44782;0.000;0.000;2023-11-22T00:07:15;17.30;64.50
58993;DHT22;44782;0.000;0.000;2023-11-22T00:09:30;17.30;64.50
58993;DHT22;44782;0.000;0.000;2023-11-22T00:11:46;17.30;64.50
58993;DHT22;44782;0.000;0.000;2023-11-22T00:14:01;17.30;64.50
58993;DHT22;44782;0.000;0.000;2023-11-22T00:16:18;17.20;64.40
58993;DHT22;44782;0.000;0.000;2023-11-22T00:18:33;17.20;64.40
58993;DHT22;44782;0.000;0.000;2023-11-22T00:20:49;17.20;64.40
58993;DHT22;44782;0.000;0.000;2023-11-22T00:23:04;17.20;64.40
58993;DHT22;44782;0.000;0.000;2023-11-22T00:25:20;17.20;64.40
58993;DHT22;44782;0.000;0.000;2023-11-22T00:27:36;17.20;64.40
58993;DHT22;44782;0.000;0.000;2023-11-22T00:29:53;17.20;64.40
58993;DHT22;44782;0.000;0.000;2023-11-22T00:32:08;17.20;64.40
58993;DHT22;44782;0.000;0.000;2023-11-22T00:34:24;17.20;64.40
58993;DHT22;44782;0.000;0.000;2023-11-22T00:36:40;17.20;64.40
58993;DHT22;44782;0.000;0.000;2023-11-22T00:38:56;17.20;64.40
58993;DHT22;44782;0.000;0.000;2023-11-22T00:41:11;17.20;64.40
58993;DHT22;44782;0.000;0.000;2023-11-22T00:43:27;17.20;64.30
58993;DHT22;44782;0.000;0.000;2023-11-22T00:45:43;17.20;64.30
58993;DHT22;44782;0.000;0.000;2023-11-22T00:47:58;17.20;64.30
58993;DHT22;44782;0.000;0.000;2023-11-22T00:50:14;17.20;64.30
58993;DHT22;44782;0.000;0.000;2023-11-22T00:52:30;17.20;64.30
58993;DHT22;44782;0.000;0.000;2023-11-22T00:54:46;17.20;64.20
58993;DHT22;44782;0.000;0.000;2023-11-22T00:57:01;17.20;64.20
58993;DHT22;44782;0.000;0.000;2023-11-22T00:59:17;17.20;64.10
58993;DHT22;44782;0.000;0.000;2023-11-22T01:01:34;17.10;64.10
58993;DHT22;44782;0.000;0.000;2023-11-22T01:03:50;17.10;64.10
58993;DHT22;44782;0.000;0.000;2023-11-22T01:06:06;17.10;64.00
58993;DHT22;44782;0.000;0.000;2023-11-22T01:08:22;17.10;64.00
58993;DHT22;44782;0.000;0.000;2023-11-22T01:10:38;17.10;64.00
58993;DHT22;44782;0.000;0.000;2023-11-22T01:12:53;17.10;64.00
58993;DHT22;44782;0.000;0.000;2023-11-22T01:15:09;17.10;63.90
58993;DHT22;44782;0.000;0.000;2023-11-22T01:17:25;17.10;63.90
58993;DHT22;44782;0.000;0.000;2023-11-22T01:19:40;17.10;63.90
58993;DHT22;44782;0.000;0.000;2023-11-22T01:21:56;17.10;63.90
58993;DHT22;44782;0.000;0.000;2023-11-22T01:24:12;17.10;63.90
58993;DHT22;44782;0.000;0.000;2023-11-22T01:26:27;17.10;63.90
58993;DHT22;44782;0.000;0.000;2023-11-22T01:28:43;17.10;63.70
58993;DHT22;44782;0.000;0.000;2023-11-22T01:31:00;17.10;63.90
58993;DHT22;44782;0.000;0.000;2023-11-22T01:33:17;17.10;63.70
58993;DHT22;44782;0.000;0.000;2023-11-22T01:35:33;17.10;63.70
58993;DHT22;44782;0.000;0.000;2023-11-22T01:37:49;17.10;63.70
58993;DHT22;44782;0.000;0.000;2023-11-22T01:40:05;17.10;63.70
58993;DHT22;44782;0.000;0.000;2023-11-22T01:42:24;17.00;63.60
58993;DHT22;44782;0.000;0.000;2023-11-22T01:44:40;17.00;63.60
58993;DHT22;44782;0.000;0.000;2023-11-22T01:46:58;17.10;63.70
58993;DHT22;44782;0.000;0.000;2023-11-22T01:49:13;17.00;63.60
58993;DHT22;44782;0.000;0.000;2023-11-22T01:51:30;17.00;63.60
58993;DHT22;44782;0.000;0.000;2023-11-22T01:53:47;17.00;63.60
58993;DHT22;44782;0.000;0.000;2023-11-22T01:56:03;17.00;63.50
58993;DHT22;44782;0.000;0.000;2023-11-22T01:58:19;17.00;63.60
58993;DHT22;44782;0.000;0.000;2023-11-22T02:00:45;17.00;63.50
58993;DHT22;44782;0.000;0.000;2023-11-22T02:03:03;17.00;63.20
58993;DHT22;44782;0.000;0.000;2023-11-22T02:05:19;17.00;63.60
58993;DHT22;44782;0.000;0.000;2023-11-22T02:10:00;17.00;63.40
58993;DHT22;44782;0.000;0.000;2023-11-22T02:12:18;17.00;63.50
58993;DHT22;44782;0.000;0.000;2023-11-22T02:14:35;16.90;63.40
58993;DHT22;44782;0.000;0.000;2023-11-22T02:16:51;17.00;63.40
58993;DHT22;44782;0.000;0.000;2023-11-22T02:19:08;16.90;63.40
58993;DHT22;44782;0.000;0.000;2023-11-22T02:21:29;16.90;63.30
58993;DHT22;44782;0.000;0.000;2023-11-22T02:23:44;16.90;63.40
58993;DHT22;44782;0.000;0.000;2023-11-22T02:26:00;16.90;63.40
58993;DHT22;44782;0.000;0.000;2023-11-22T02:28:16;16.90;63.30
58993;DHT22;44782;0.000;0.000;2023-11-22T02:30:32;16.90;63.20
58993;DHT22;44782;0.000;0.000;2023-11-22T02:32:47;16.90;63.20
58993;DHT22;44782;0.000;0.000;2023-11-22T02:35:04;16.90;63.20
58993;DHT22;44782;0.000;0.000;2023-11-22T02:37:22;16.90;63.10
58993;DHT22;44782;0.000;0.000;2023-11-22T02:40:18;16.90;63.20
58993;DHT22;44782;0.000;0.000;2023-11-22T02:42:35;17.00;62.90
58993;DHT22;44782;0.000;0.000;2023-11-22T02:44:50;16.90;63.20
58993;DHT22;44782;0.000;0.000;2023-11-22T02:47:06;16.90;63.10
58993;DHT22;44782;0.000;0.000;2023-11-22T02:49:22;16.90;63.20
58993;DHT22;44782;0.000;0.000;2023-11-22T02:51:37;16.90;63.20
58993;DHT22;44782;0.000;0.000;2023-11-22T02:53:54;16.90;63.20
58993;DHT22;44782;0.000;0.000;2023-11-22T02:56:10;16.90;63.10
58993;DHT22;44782;0.000;0.000;2023-11-22T02:58:29;16.90;63.10
58993;DHT22;44782;0.000;0.000;2023-11-22T03:00:46;16.90;63.00
58993;DHT22;44782;0.000;0.000;2023-11-22T03:03:02;16.90;63.10
58993;DHT22;44782;0.000;0.000;2023-11-22T03:05:22;16.90;63.00
58993;DHT22;44782;0.000;0.000;2023-11-22T03:07:41;16.90;62.90
58993;DHT22;44782;0.000;0.000;2023-11-22T03:09:57;16.80;62.90
58993;DHT22;44782;0.000;0.000;2023-11-22T03:12:16;16.80;62.90
58993;DHT22;44782;0.000;0.000;2023-11-22T03:14:32;16.80;62.90
58993;DHT22;44782;0.000;0.000;2023-11-22T03:16:48;16.80;63.50
58993;DHT22;44782;0.000;0.000;2023-11-22T03:19:03;16.80;62.80
58993;DHT22;44782;0.000;0.000;2023-11-22T03:21:19;16.80;62.70
58993;DHT22;44782;0.000;0.000;2023-11-22T03:23:35;16.80;62.70
58993;DHT22;44782;0.000;0.000;2023-11-22T03:25:51;16.80;62.70
58993;DHT22;44782;0.000;0.000;2023-11-22T03:28:06;16.90;62.80
58993;DHT22;44782;0.000;0.000;2023-11-22T03:30:22;16.80;62.60
58993;DHT22;44782;0.000;0.000;2023-11-22T03:32:38;16.80;62.60
58993;DHT22;44782;0.000;0.000;2023-11-22T03:34:55;16.80;62.60
58993;DHT22;44782;0.000;0.000;2023-11-22T03:37:12;16.80;62.60
58993;DHT22;44782;0.000;0.000;2023-11-22T03:39:28;16.70;62.50
58993;DHT22;44782;0.000;0.000;2023-11-22T03:41:44;16.70;62.40
58993;DHT22;44782;0.000;0.000;2023-11-22T03:44:00;16.80;62.50
58993;DHT22;44782;0.000;0.000;2023-11-22T03:46:18;16.70;62.50
58993;DHT22;44782;0.000;0.000;2023-11-22T03:48:34;16.70;62.40
58993;DHT22;44782;0.000;0.000;2023-11-22T03:50:50;16.70;62.40
58993;DHT22;44782;0.000;0.000;2023-11-22T03:53:05;16.70;62.40
58993;DHT22;44782;0.000;0.000;2023-11-22T03:55:21;16.70;62.40
58993;DHT22;44782;0.000;0.000;2023-11-22T03:57:36;16.70;62.30
58993;DHT22;44782;0.000;0.000;2023-11-22T03:59:52;16.70;62.30
58993;DHT22;44782;0.000;0.000;2023-11-22T04:02:08;16.70;62.20
58993;DHT22;44782;0.000;0.000;2023-11-22T04:04:23;16.70;62.20
58993;DHT22;44782;0.000;0.000;2023-11-22T04:06:39;16.70;62.30
58993;DHT22;44782;0.000;0.000;2023-11-22T04:08:55;16.70;62.20
58993;DHT22;44782;0.000;0.000;2023-11-22T04:11:15;16.70;62.20
58993;DHT22;44782;0.000;0.000;2023-11-22T04:13:50;16.70;62.10
58993;DHT22;44782;0.000;0.000;2023-11-22T04:16:07;16.70;61.80
58993;DHT22;44782;0.000;0.000;2023-11-22T04:18:28;16.70;62.20
58993;DHT22;44782;0.000;0.000;2023-11-22T04:20:43;16.60;62.10
58993;DHT22;44782;0.000;0.000;2023-11-22T04:22:59;16.70;62.10
58993;DHT22;44782;0.000;0.000;2023-11-22T04:25:16;16.70;62.10
58993;DHT22;44782;0.000;0.000;2023-11-22T04:27:33;16.60;62.00
58993;DHT22;44782;0.000;0.000;2023-11-22T04:29:48;16.60;62.00
58993;DHT22;44782;0.000;0.000;2023-11-22T04:32:05;16.60;62.00
58993;DHT22;44782;0.000;0.000;2023-11-22T04:34:20;16.60;61.90
58993;DHT22;44782;0.000;0.000;2023-11-22T04:36:36;16.60;61.90
58993;DHT22;44782;0.000;0.000;2023-11-22T04:38:52;16.60;61.90
58993;DHT22;44782;0.000;0.000;2023-11-22T04:41:08;16.60;61.80
58993;DHT22;44782;0.000;0.000;2023-11-22T04:43:23;16.60;61.80
58993;DHT22;44782;0.000;0.000;2023-11-22T04:45:39;16.60;61.80
58993;DHT22;44782;0.000;0.000;2023-11-22T04:47:55;16.60;62.50
58993;DHT22;44782;0.000;0.000;2023-11-22T04:50:12;16.60;61.80
58993;DHT22;44782;0.000;0.000;2023-11-22T04:52:28;16.60;61.70
58993;DHT22;44782;0.000;0.000;2023-11-22T04:54:43;16.60;61.60
58993;DHT22;44782;0.000;0.000;2023-11-22T04:56:59;16.60;61.70
58993;DHT22;44782;0.000;0.000;2023-11-22T04:59:15;16.60;61.70
58993;DHT22;44782;0.000;0.000;2023-11-22T05:01:32;16.60;61.60
58993;DHT22;44782;0.000;0.000;2023-11-22T05:03:48;16.60;61.60
58993;DHT22;44782;0.000;0.000;2023-11-22T05:06:04;16.60;61.60
58993;DHT22;44782;0.000;0.000;2023-11-22T05:08:20;16.60;61.60
58993;DHT22;44782;0.000;0.000;2023-11-22T05:10:35;16.60;61.50
58993;DHT22;44782;0.000;0.000;2023-11-22T05:12:51;16.50;61.50
58993;DHT22;44782;0.000;0.000;2023-11-22T05:15:07;16.50;61.50
58993;DHT22;44782;0.000;0.000;2023-11-22T05:17:23;16.50;61.50
58993;DHT22;44782;0.000;0.000;2023-11-22T05:19:39;16.50;61.50
58993;DHT22;44782;0.000;0.000;2023-11-22T05:21:54;16.50;61.50
58993;DHT22;44782;0.000;0.000;2023-11-22T05:24:10;16.50;61.50
58993;DHT22;44782;0.000;0.000;2023-11-22T05:26:26;16.50;61.50
58993;DHT22;44782;0.000;0.000;2023-11-22T05:28:42;16.50;61.50
58993;DHT22;44782;0.000;0.000;2023-11-22T05:30:58;16.50;61.50
58993;DHT22;44782;0.000;0.000;2023-11-22T05:33:13;16.50;61.50
58993;DHT22;44782;0.000;0.000;2023-11-22T05:35:29;16.50;61.50
58993;DHT22;44782;0.000;0.000;2023-11-22T05:37:45;16.50;61.40
58993;DHT22;44782;0.000;0.000;2023-11-22T05:40:00;16.50;61.40
58993;DHT22;44782;0.000;0.000;2023-11-22T05:42:16;16.50;61.40
58993;DHT22;44782;0.000;0.000;2023-11-22T05:44:33;16.50;61.30
58993;DHT22;44782;0.000;0.000;2023-11-22T05:46:49;16.50;61.30
58993;DHT22;44782;0.000;0.000;2023-11-22T05:49:04;16.40;61.30
58993;DHT22;44782;0.000;0.000;2023-11-22T05:51:20;16.40;61.30
58993;DHT22;44782;0.000;0.000;2023-11-22T05:53:39;16.50;61.30
58993;DHT22;44782;0.000;0.000;2023-11-22T05:55:55;16.40;61.30
58993;DHT22;44782;0.000;0.000;2023-11-22T05:58:11;16.40;61.30
58993;DHT22;44782;0.000;0.000;2023-11-22T06:00:27;16.40;61.20
58993;DHT22;44782;0.000;0.000;2023-11-22T06:02:42;16.40;61.20
58993;DHT22;44782;0.000;0.000;2023-11-22T06:04:58;16.40;61.20
58993;DHT22;44782;0.000;0.000;2023-11-22T06:07:13;16.40;61.10
58993;DHT22;44782;0.000;0.000;2023-11-22T06:09:29;16.40;61.10
58993;DHT22;44782;0.000;0.000;2023-11-22T06:11:45;16.40;61.20
58993;DHT22;44782;0.000;0.000;2023-11-22T06:14:00;16.40;61.20
58993;DHT22;44782;0.000;0.000;2023-11-22T06:16:16;16.40;61.10
58993;DHT22;44782;0.000;0.000;2023-11-22T06:18:32;16.40;61.00
58993;DHT22;44782;0.000;0.000;2023-11-22T06:20:49;16.40;61.00
58993;DHT22;44782;0.000;0.000;2023-11-22T06:23:04;16.40;61.00
58993;DHT22;44782;0.000;0.000;2023-11-22T06:25:20;16.40;61.00
58993;DHT22;44782;0.000;0.000;2023-11-22T06:27:36;16.40;61.00
58993;DHT22;44782;0.000;0.000;2023-11-22T06:29:52;16.40;61.10
58993;DHT22;44782;0.000;0.000;2023-11-22T06:32:07;16.30;61.00
58993;DHT22;44782;0.000;0.000;2023-11-22T06:34:23;16.40;61.00
58993;DHT22;44782;0.000;0.000;2023-11-22T06:36:39;16.30;61.00
58993;DHT22;44782;0.000;0.000;2023-11-22T06:38:55;16.30;61.00
58993;DHT22;44782;0.000;0.000;2023-11-22T06:41:10;16.30;61.70
58993;DHT22;44782;0.000;0.000;2023-11-22T06:43:26;16.30;61.00
58993;DHT22;44782;0.000;0.000;2023-11-22T06:45:42;16.30;61.00
58993;DHT22;44782;0.000;0.000;2023-11-22T06:47:57;16.30;60.90
58993;DHT22;44782;0.000;0.000;2023-11-22T06:50:16;16.30;60.90
58993;DHT22;44782;0.000;0.000;2023-11-22T06:52:32;16.30;61.00
58993;DHT22;44782;0.000;0.000;2023-11-22T06:54:48;16.30;61.10
58993;DHT22;44782;0.000;0.000;2023-11-22T06:57:03;16.30;61.30
58993;DHT22;44782;0.000;0.000;2023-11-22T06:59:19;16.20;61.30
58993;DHT22;44782;0.000;0.000;2023-11-22T07:01:35;16.30;61.40
58993;DHT22;44782;0.000;0.000;2023-11-22T07:03:51;16.30;61.60
58993;DHT22;44782;0.000;0.000;2023-11-22T07:06:08;16.30;61.70
58993;DHT22;44782;0.000;0.000;2023-11-22T07:08:23;16.30;61.70
58993;DHT22;44782;0.000;0.000;2023-11-22T07:10:41;16.30;61.80
58993;DHT22;44782;0.000;0.000;2023-11-22T07:12:56;16.30;61.90
58993;DHT22;44782;0.000;0.000;2023-11-22T07:15:12;16.30;62.10
58993;DHT22;44782;0.000;0.000;2023-11-22T07:17:29;16.30;62.30
58993;DHT22;44782;0.000;0.000;2023-11-22T07:19:45;16.20;62.40
58993;DHT22;44782;0.000;0.000;2023-11-22T07:22:04;16.20;62.40
58993;DHT22;44782;0.000;0.000;2023-11-22T07:24:31;16.30;62.60
58993;DHT22;44782;0.000;0.000;2023-11-22T07:26:49;16.20;62.70
58993;DHT22;44782;0.000;0.000;2023-11-22T07:29:05;16.20;62.90
58993;DHT22;44782;0.000;0.000;2023-11-22T07:31:21;16.30;63.10
58993;DHT22;44782;0.000;0.000;2023-11-22T07:33:38;16.20;63.10
58993;DHT22;44782;0.000;0.000;2023-11-22T07:35:54;16.30;63.30
58993;DHT22;44782;0.000;0.000;2023-11-22T07:38:09;16.30;63.30
58993;DHT22;44782;0.000;0.000;2023-11-22T07:40:29;16.20;63.40
58993;DHT22;44782;0.000;0.000;2023-11-22T07:42:45;16.20;63.60
58993;DHT22;44782;0.000;0.000;2023-11-22T07:45:01;16.20;63.70
58993;DHT22;44782;0.000;0.000;2023-11-22T07:47:17;16.30;63.90
58993;DHT22;44782;0.000;0.000;2023-11-22T07:49:33;16.30;64.30
58993;DHT22;44782;0.000;0.000;2023-11-22T07:51:51;16.30;64.40
58993;DHT22;44782;0.000;0.000;2023-11-22T07:54:07;16.30;64.60
58993;DHT22;44782;0.000;0.000;2023-11-22T07:56:24;16.30;64.90
58993;DHT22;44782;0.000;0.000;2023-11-22T07:58:40;16.30;65.10
58993;DHT22;44782;0.000;0.000;2023-11-22T08:00:56;16.30;65.30
58993;DHT22;44782;0.000;0.000;2023-11-22T08:03:12;16.30;65.50
58993;DHT22;44782;0.000;0.000;2023-11-22T08:05:30;16.30;65.80
58993;DHT22;44782;0.000;0.000;2023-11-22T08:07:51;16.30;66.00
58993;DHT22;44782;0.000;0.000;2023-11-22T08:10:08;16.30;66.10
58993;DHT22;44782;0.000;0.000;2023-11-22T08:12:36;16.30;66.30
58993;DHT22;44782;0.000;0.000;2023-11-22T08:14:53;16.30;66.40
58993;DHT22;44782;0.000;0.000;2023-11-22T08:17:11;16.40;66.50
58993;DHT22;44782;0.000;0.000;2023-11-22T08:19:29;16.30;66.60
58993;DHT22;44782;0.000;0.000;2023-11-22T08:21:45;16.40;66.70
58993;DHT22;44782;0.000;0.000;2023-11-22T08:24:00;16.40;66.80
58993;DHT22;44782;0.000;0.000;2023-11-22T08:26:16;16.40;66.80
58993;DHT22;44782;0.000;0.000;2023-11-22T08:28:32;16.40;66.90
58993;DHT22;44782;0.000;0.000;2023-11-22T08:30:49;16.40;67.00
58993;DHT22;44782;0.000;0.000;2023-11-22T08:33:06;16.40;67.90
58993;DHT22;44782;0.000;0.000;2023-11-22T08:35:22;16.40;67.20
58993;DHT22;44782;0.000;0.000;2023-11-22T08:37:40;16.40;67.30
58993;DHT22;44782;0.000;0.000;2023-11-22T08:39:56;16.40;67.40
58993;DHT22;44782;0.000;0.000;2023-11-22T08:42:12;16.40;67.30
58993;DHT22;44782;0.000;0.000;2023-11-22T08:44:29;16.40;67.10
58993;DHT22;44782;0.000;0.000;2023-11-22T08:46:45;16.40;67.00
58993;DHT22;44782;0.000;0.000;2023-11-22T08:49:02;16.40;66.80
58993;DHT22;44782;0.000;0.000;2023-11-22T08:51:18;16.40;66.80
58993;DHT22;44782;0.000;0.000;2023-11-22T08:53:34;16.40;66.70
58993;DHT22;44782;0.000;0.000;2023-11-22T08:55:49;16.40;66.60
58993;DHT22;44782;0.000;0.000;2023-11-22T08:58:05;16.40;66.50
58993;DHT22;44782;0.000;0.000;2023-11-22T09:00:20;16.40;66.50
58993;DHT22;44782;0.000;0.000;2023-11-22T09:02:38;16.40;66.30
58993;DHT22;44782;0.000;0.000;2023-11-22T09:04:54;16.40;66.20
58993;DHT22;44782;0.000;0.000;2023-11-22T09:07:10;16.40;66.20
58993;DHT22;44782;0.000;0.000;2023-11-22T09:09:25;16.40;66.20
58993;DHT22;44782;0.000;0.000;2023-11-22T09:11:46;16.40;66.10
58993;DHT22;44782;0.000;0.000;2023-11-22T09:14:01;16.40;66.00
58993;DHT22;44782;0.000;0.000;2023-11-22T09:16:20;16.40;66.00
58993;DHT22;44782;0.000;0.000;2023-11-22T09:18:37;16.40;66.00
58993;DHT22;44782;0.000;0.000;2023-11-22T09:20:53;16.40;66.00
58993;DHT22;44782;0.000;0.000;2023-11-22T09:23:09;16.40;66.10
58993;DHT22;44782;0.000;0.000;2023-11-22T09:25:25;16.40;66.30
58993;DHT22;44782;0.000;0.000;2023-11-22T09:27:43;16.40;66.30
58993;DHT22;44782;0.000;0.000;2023-11-22T09:30:03;16.40;66.30
58993;DHT22;44782;0.000;0.000;2023-11-22T09:32:19;16.40;66.30
58993;DHT22;44782;0.000;0.000;2023-11-22T09:34:34;16.40;66.40
58993;DHT22;44782;0.000;0.000;2023-11-22T09:36:50;16.40;66.30
58993;DHT22;44782;0.000;0.000;2023-11-22T09:39:06;16.40;66.30
58993;DHT22;44782;0.000;0.000;2023-11-22T09:41:24;16.40;66.40
58993;DHT22;44782;0.000;0.000;2023-11-22T09:43:42;16.40;66.40
58993;DHT22;44782;0.000;0.000;2023-11-22T09:45:59;16.40;66.30
58993;DHT22;44782;0.000;0.000;2023-11-22T09:48:17;16.40;66.30
58993;DHT22;44782;0.000;0.000;2023-11-22T09:50:50;16.40;66.20
58993;DHT22;44782;0.000;0.000;2023-11-22T09:53:12;16.40;66.40
58993;DHT22;44782;0.000;0.000;2023-11-22T09:55:30;16.30;66.10
58993;DHT22;44782;0.000;0.000;2023-11-22T09:57:46;16.40;66.20
58993;DHT22;44782;0.000;0.000;2023-11-22T10:00:02;16.40;66.10
58993;DHT22;44782;0.000;0.000;2023-11-22T10:02:19;16.30;66.00
58993;DHT22;44782;0.000;0.000;2023-11-22T10:04:36;16.30;66.00
58993;DHT22;44782;0.000;0.000;2023-11-22T10:06:53;16.30;65.90
58993;DHT22;44782;0.000;0.000;2023-11-22T10:09:09;16.40;66.00
58993;DHT22;44782;0.000;0.000;2023-11-22T10:11:25;16.40;65.80
58993;DHT22;44782;0.000;0.000;2023-11-22T10:13:40;16.30;65.70
58993;DHT22;44782;0.000;0.000;2023-11-22T10:16:09;16.30;65.70
58993;DHT22;44782;0.000;0.000;2023-11-22T10:18:28;16.30;65.60
58993;DHT22;44782;0.000;0.000;2023-11-22T10:20:47;16.30;66.30
58993;DHT22;44782;0.000;0.000;2023-11-22T10:23:03;16.30;65.50
58993;DHT22;44782;0.000;0.000;2023-11-22T10:25:19;16.30;65.50
58993;DHT22;44782;0.000;0.000;2023-11-22T10:27:34;16.30;65.50
58993;DHT22;44782;0.000;0.000;2023-11-22T10:29:51;16.30;65.40
58993;DHT22;44782;0.000;0.000;2023-11-22T10:32:06;16.30;65.30
58993;DHT22;44782;0.000;0.000;2023-11-22T10:34:23;16.20;65.20
58993;DHT22;44782;0.000;0.000;2023-11-22T10:36:39;16.30;65.10
58993;DHT22;44782;0.000;0.000;2023-11-22T10:38:57;16.30;65.10
58993;DHT22;44782;0.000;0.000;2023-11-22T10:41:13;16.30;65.00
58993;DHT22;44782;0.000;0.000;2023-11-22T10:43:30;16.30;65.00
58993;DHT22;44782;0.000;0.000;2023-11-22T10:45:48;16.20;64.80
58993;DHT22;44782;0.000;0.000;2023-11-22T10:48:07;16.30;64.80
58993;DHT22;44782;0.000;0.000;2023-11-22T10:50:24;16.20;64.80
58993;DHT22;44782;0.000;0.000;2023-11-22T10:52:41;16.30;64.70
58993;DHT22;44782;0.000;0.000;2023-11-22T10:55:03;16.20;64.60
58993;DHT22;44782;0.000;0.000;2023-11-22T10:57:22;16.20;64.50
58993;DHT22;44782;0.000;0.000;2023-11-22T10:59:41;16.20;65.20
58993;DHT22;44782;0.000;0.000;2023-11-22T11:02:01;16.20;64.30
58993;DHT22;44782;0.000;0.000;2023-11-22T11:04:29;16.20;64.30
58993;DHT22;44782;0.000;0.000;2023-11-22T11:06:51;16.20;64.20
58993;DHT22;44782;0.000;0.000;2023-11-22T11:09:09;16.20;64.30
58993;DHT22;44782;0.000;0.000;2023-11-22T11:11:28;16.20;64.20
58993;DHT22;44782;0.000;0.000;2023-11-22T11:13:45;16.20;64.20
58993;DHT22;44782;0.000;0.000;2023-11-22T11:16:02;16.20;64.20
58993;DHT22;44782;0.000;0.000;2023-11-22T11:18:18;16.20;64.10
58993;DHT22;44782;0.000;0.000;2023-11-22T11:20:51;16.20;64.10
58993;DHT22;44782;0.000;0.000;2023-11-22T11:23:12;16.20;63.70
58993;DHT22;44782;0.000;0.000;2023-11-22T11:25:27;16.20;64.00
58993;DHT22;44782;0.000;0.000;2023-11-22T11:27:43;16.20;63.90
58993;DHT22;44782;0.000;0.000;2023-11-22T11:29:59;16.20;63.80
58993;DHT22;44782;0.000;0.000;2023-11-22T11:32:33;16.20;63.80
58993;DHT22;44782;0.000;0.000;2023-11-22T11:34:49;16.20;63.40
58993;DHT22;44782;0.000;0.000;2023-11-22T11:37:11;16.20;63.80
58993;DHT22;44782;0.000;0.000;2023-11-22T11:39:29;16.20;63.70
58993;DHT22;44782;0.000;0.000;2023-11-22T11:41:46;16.20;63.80
58993;DHT22;44782;0.000;0.000;2023-11-22T11:44:03;16.20;63.70
58993;DHT22;44782;0.000;0.000;2023-11-22T11:46:20;16.30;63.70
58993;DHT22;44782;0.000;0.000;2023-11-22T11:48:42;16.30;63.60
58993;DHT22;44782;0.000;0.000;2023-11-22T11:50:58;16.30;63.50
58993;DHT22;44782;0.000;0.000;2023-11-22T11:53:18;16.30;63.60
58993;DHT22;44782;0.000;0.000;2023-11-22T11:55:34;16.30;63.30
58993;DHT22;44782;0.000;0.000;2023-11-22T11:57:53;16.20;63.40
58993;DHT22;44782;0.000;0.000;2023-11-22T12:00:10;16.20;63.20
58993;DHT22;44782;0.000;0.000;2023-11-22T12:02:29;16.30;63.40
58993;DHT22;44782;0.000;0.000;2023-11-22T12:04:45;16.30;63.30
58993;DHT22;44782;0.000;0.000;2023-11-22T12:07:00;16.20;63.20
58993;DHT22;44782;0.000;0.000;2023-11-22T12:09:22;16.20;63.20
58993;DHT22;44782;0.000;0.000;2023-11-22T12:11:39;16.20;63.00
58993;DHT22;44782;0.000;0.000;2023-11-22T12:13:56;16.30;63.20
58993;DHT22;44782;0.000;0.000;2023-11-22T12:16:16;16.20;63.10
58993;DHT22;44782;0.000;0.000;2023-11-22T12:18:46;16.30;62.90
58993;DHT22;44782;0.000;0.000;2023-11-22T12:21:03;16.20;62.60
58993;DHT22;44782;0.000;0.000;2023-11-22T12:23:19;16.20;63.00
58993;DHT22;44782;0.000;0.000;2023-11-22T12:25:35;16.20;62.90
58993;DHT22;44782;0.000;0.000;2023-11-22T12:27:54;16.20;62.80
58993;DHT22;44782;0.000;0.000;2023-11-22T12:30:22;16.20;62.70
58993;DHT22;44782;0.000;0.000;2023-11-22T12:32:42;16.20;62.80
58993;DHT22;44782;0.000;0.000;2023-11-22T12:34:58;16.20;62.70
58993;DHT22;44782;0.000;0.000;2023-11-22T12:37:13;16.20;62.70
58993;DHT22;44782;0.000;0.000;2023-11-22T12:39:30;16.20;62.80
58993;DHT22;44782;0.000;0.000;2023-11-22T12:41:49;16.20;63.10
58993;DHT22;44782;0.000;0.000;2023-11-22T12:44:06;16.20;63.30
58993;DHT22;44782;0.000;0.000;2023-11-22T12:46:22;16.20;63.50
58993;DHT22;44782;0.000;0.000;2023-11-22T12:48:38;16.30;63.70
58993;DHT22;44782;0.000;0.000;2023-11-22T12:50:54;16.20;63.70
58993;DHT22;44782;0.000;0.000;2023-11-22T12:53:14;16.20;63.70
58993;DHT22;44782;0.000;0.000;2023-11-22T12:55:30;16.30;63.90
58993;DHT22;44782;0.000;0.000;2023-11-22T12:57:56;16.20;64.10
58993;DHT22;44782;0.000;0.000;2023-11-22T13:00:12;16.30;64.10
58993;DHT22;44782;0.000;0.000;2023-11-22T13:02:28;16.30;63.80
58993;DHT22;44782;0.000;0.000;2023-11-22T13:04:44;16.20;64.00
58993;DHT22;44782;0.000;0.000;2023-11-22T13:07:01;16.20;64.20
58993;DHT22;44782;0.000;0.000;2023-11-22T13:09:16;16.30;64.40
58993;DHT22;44782;0.000;0.000;2023-11-22T13:11:32;16.30;64.40
58993;DHT22;44782;0.000;0.000;2023-11-22T13:13:48;16.20;64.40
58993;DHT22;44782;0.000;0.000;2023-11-22T13:16:04;16.20;64.40
58993;DHT22;44782;0.000;0.000;2023-11-22T13:18:20;16.30;64.60
58993;DHT22;44782;0.000;0.000;2023-11-22T13:20:36;16.20;64.50
58993;DHT22;44782;0.000;0.000;2023-11-22T13:22:54;16.30;64.80
58993;DHT22;44782;0.000;0.000;2023-11-22T13:25:10;16.30;64.80
58993;DHT22;44782;0.000;0.000;2023-11-22T13:27:26;16.20;64.60
58993;DHT22;44782;0.000;0.000;2023-11-22T13:29:42;16.30;64.60
58993;DHT22;44782;0.000;0.000;2023-11-22T13:31:59;16.30;64.70
58993;DHT22;44782;0.000;0.000;2023-11-22T13:34:15;16.20;64.60
58993;DHT22;44782;0.000;0.000;2023-11-22T13:36:30;16.20;64.60
58993;DHT22;44782;0.000;0.000;2023-11-22T13:38:47;16.20;64.40
58993;DHT22;44782;0.000;0.000;2023-11-22T13:41:03;16.20;64.30
58993;DHT22;44782;0.000;0.000;2023-11-22T13:43:18;16.20;64.30
58993;DHT22;44782;0.000;0.000;2023-11-22T13:45:35;16.30;64.30
58993;DHT22;44782;0.000;0.000;2023-11-22T13:47:54;16.20;64.30
58993;DHT22;44782;0.000;0.000;2023-11-22T13:50:19;16.20;64.20
58993;DHT22;44782;0.000;0.000;2023-11-22T13:52:37;16.20;64.10
58993;DHT22;44782;0.000;0.000;2023-11-22T13:54:53;16.20;64.10
58993;DHT22;44782;0.000;0.000;2023-11-22T13:57:12;16.20;64.10
58993;DHT22;44782;0.000;0.000;2023-11-22T13:59:29;16.20;64.00
58993;DHT22;44782;0.000;0.000;2023-11-22T14:01:45;16.20;63.90
58993;DHT22;44782;0.000;0.000;2023-11-22T14:04:01;16.20;63.80
58993;DHT22;44782;0.000;0.000;2023-11-22T14:06:17;16.20;63.70
58993;DHT22;44782;0.000;0.000;2023-11-22T14:08:33;16.20;63.70
58993;DHT22;44782;0.000;0.000;2023-11-22T14:10:49;16.20;63.70
58993;DHT22;44782;0.000;0.000;2023-11-22T14:13:07;16.20;63.60
58993;DHT22;44782;0.000;0.000;2023-11-22T14:15:23;16.20;63.60
58993;DHT22;44782;0.000;0.000;2023-11-22T14:17:39;16.10;63.50
58993;DHT22;44782;0.000;0.000;2023-11-22T14:19:56;16.10;63.40
58993;DHT22;44782;0.000;0.000;2023-11-22T14:22:12;16.20;63.40
58993;DHT22;44782;0.000;0.000;2023-11-22T14:24:29;16.10;63.30
58993;DHT22;44782;0.000;0.000;2023-11-22T14:26:45;16.10;63.30
58993;DHT22;44782;0.000;0.000;2023-11-22T14:29:04;16.10;63.30
58993;DHT22;44782;0.000;0.000;2023-11-22T14:31:21;16.10;63.20
58993;DHT22;44782;0.000;0.000;2023-11-22T14:33:37;16.10;63.20
58993;DHT22;44782;0.000;0.000;2023-11-22T14:35:52;16.10;63.10
58993;DHT22;44782;0.000;0.000;2023-11-22T14:38:08;16.10;63.10
58993;DHT22;44782;0.000;0.000;2023-11-22T14:40:24;16.10;63.00